Time;durP1;ratioP1;P1;durP2;ratioP2;P2;SDS_P1;SDS_P2;PMS_P1;PMS_P2;Temp;Humidity;BMP_temperature;BMP_pressure;BME280_temperature;BME280_humidity;BME280_pressure;Samples;Min_cycle;Max_cycle;Signal;HPM_P1;HPM_P2
2023/09/22 00:00:15;;;;;;;0.20;0.20;;;12.30;1.00;;;;;;5069219;28;20048;-75
2023/09/22 00:02:44;;;;;;;0.28;0.20;;;12.30;1.00;;;;;;5085392;28;20466;-75
2023/09/22 00:05:13;;;;;;;0.10;0.10;;;12.30;1.00;;;;;;5068942;28;20052;-76
2023/09/22 00:07:41;;;;;;;0.52;0.20;;;12.20;1.00;;;;;;5084343;28;20056;-75
2023/09/22 00:10:08;;;;;;;0.15;0.15;;;12.20;1.00;;;;;;5085503;28;20143;-75
2023/09/22 00:12:35;;;;;;;0.20;0.20;;;12.20;1.00;;;;;;5086450;28;20051;-75
2023/09/22 00:15:03;;;;;;;0.55;0.10;;;12.20;1.00;;;;;;5068688;28;20411;-75
2023/09/22 00:17:32;;;;;;;0.20;0.20;;;12.20;1.00;;;;;;5085234;28;20071;-75
2023/09/22 00:19:59;;;;;;;0.25;0.25;;;12.20;1.00;;;;;;5085413;28;20075;-75
2023/09/22 00:22:25;;;;;;;0.55;0.10;;;12.20;99.90;;;;;;5085083;28;20048;-76
2023/09/22 00:24:52;;;;;;;0.20;0.20;;;12.10;99.90;;;;;;5064889;28;20120;-75
2023/09/22 00:27:19;;;;;;;0.15;0.15;;;12.10;99.90;;;;;;5078398;28;20087;-75
2023/09/22 00:29:46;;;;;;;0.40;0.40;;;12.20;1.00;;;;;;5081015;28;20132;-76
2023/09/22 00:32:13;;;;;;;0.22;0.20;;;12.20;1.00;;;;;;5065816;28;20055;-76
2023/09/22 00:34:40;;;;;;;0.30;0.30;;;12.10;99.90;;;;;;5067946;28;20044;-76
2023/09/22 00:37:07;;;;;;;0.20;0.20;;;12.10;1.00;;;;;;5066543;28;20070;-75
2023/09/22 00:39:34;;;;;;;1.08;0.20;;;12.10;99.90;;;;;;5084593;28;20048;-75
2023/09/22 00:42:05;;;;;;;0.47;0.20;;;12.10;1.00;;;;;;5085627;28;20141;-75
2023/09/22 00:44:32;;;;;;;0.22;0.20;;;12.10;1.00;;;;;;5086234;28;20500;-75
2023/09/22 00:46:59;;;;;;;0.10;0.10;;;12.00;1.00;;;;;;5084810;28;20469;-75
2023/09/22 00:49:26;;;;;;;0.10;0.10;;;12.10;1.00;;;;;;5068005;28;20055;-75
2023/09/22 00:51:53;;;;;;;0.30;0.30;;;12.10;1.00;;;;;;5082468;28;20098;-75
2023/09/22 00:54:20;;;;;;;0.20;0.20;;;12.10;1.00;;;;;;5084926;28;20048;-75
2023/09/22 00:56:47;;;;;;;0.43;0.30;;;12.10;1.00;;;;;;5084121;28;20407;-75
2023/09/22 00:59:15;;;;;;;0.20;0.20;;;12.00;1.00;;;;;;5067896;28;20478;-75
2023/09/22 01:01:43;;;;;;;0.15;0.10;;;12.00;1.00;;;;;;5050443;28;20143;-75
2023/09/22 01:04:11;;;;;;;0.50;0.30;;;12.00;1.00;;;;;;5082434;28;20105;-75
2023/09/22 01:06:39;;;;;;;0.20;0.20;;;12.00;1.00;;;;;;5081303;28;20088;-76
2023/09/22 01:09:06;;;;;;;0.52;0.30;;;12.00;1.00;;;;;;5067806;28;20044;-75
2023/09/22 01:11:34;;;;;;;0.20;0.20;;;11.90;99.90;;;;;;5084120;28;20272;-75
2023/09/22 01:14:01;;;;;;;0.30;0.20;;;11.90;99.90;;;;;;5085786;28;20044;-76
2023/09/22 01:16:29;;;;;;;0.20;0.20;;;11.80;99.90;;;;;;5064930;28;20407;-75
2023/09/22 01:18:57;;;;;;;0.20;0.20;;;11.80;99.90;;;;;;5067792;28;20105;-75
2023/09/22 01:21:28;;;;;;;0.40;0.20;;;11.80;1.00;;;;;;5076509;28;20890;-75
2023/09/22 01:23:56;;;;;;;0.45;0.20;;;11.80;1.00;;;;;;5074717;28;20127;-75
2023/09/22 01:26:22;;;;;;;0.45;0.30;;;11.90;1.00;;;;;;5085627;28;20071;-75
2023/09/22 01:28:49;;;;;;;0.28;0.28;;;11.90;40.10;;;;;;5085257;28;20140;-75
2023/09/22 01:31:16;;;;;;;0.20;0.20;;;11.90;94.20;;;;;;5079645;28;20064;-75
2023/09/22 01:33:45;;;;;;;0.40;0.20;;;11.90;99.90;;;;;;5066970;28;20053;-75
2023/09/22 01:36:16;;;;;;;0.20;0.20;;;12.00;99.90;;;;;;5065634;28;20056;-76
2023/09/22 01:38:43;;;;;;;0.20;0.20;;;11.90;96.60;;;;;;5081566;28;20089;-75
2023/09/22 01:41:13;;;;;;;0.50;0.30;;;12.00;99.90;;;;;;5086639;28;20124;-75
2023/09/22 01:43:40;;;;;;;0.98;0.35;;;12.00;99.90;;;;;;5069317;28;20059;-75
2023/09/22 01:46:07;;;;;;;0.40;0.30;;;12.00;99.90;;;;;;5085051;28;20097;-76
2023/09/22 01:48:34;;;;;;;0.30;0.20;;;12.00;99.90;;;;;;5085489;28;20150;-75
2023/09/22 01:51:02;;;;;;;0.30;0.30;;;12.00;78.10;;;;;;5084496;28;20090;-75
2023/09/22 01:53:29;;;;;;;0.30;0.30;;;12.00;59.30;;;;;;5067041;28;20688;-75
2023/09/22 01:55:56;;;;;;;0.20;0.20;;;12.00;23.80;;;;;;5067636;28;20105;-75
2023/09/22 01:58:22;;;;;;;0.45;0.40;;;12.00;99.90;;;;;;5085078;28;20384;-75
2023/09/22 02:00:49;;;;;;;0.30;0.30;;;12.00;99.90;;;;;;5084307;28;20044;-75
2023/09/22 02:03:16;;;;;;;0.35;0.25;;;12.00;97.10;;;;;;5086696;28;20044;-75
2023/09/22 02:05:44;;;;;;;0.30;0.20;;;12.10;92.80;;;;;;5089441;28;20139;-75
2023/09/22 02:08:10;;;;;;;0.17;0.17;;;12.00;42.70;;;;;;5086907;28;20052;-76
2023/09/22 02:10:37;;;;;;;0.20;0.20;;;12.00;7.30;;;;;;5092632;28;20066;-75
2023/09/22 02:13:05;;;;;;;0.20;0.20;;;12.00;1.00;;;;;;5091611;28;20364;-75
2023/09/22 02:15:32;;;;;;;0.20;0.20;;;12.00;7.60;;;;;;5110288;28;20048;-75
2023/09/22 02:17:58;;;;;;;0.20;0.20;;;12.00;25.80;;;;;;5095015;28;20070;-75
2023/09/22 02:20:25;;;;;;;0.50;0.17;;;12.00;77.00;;;;;;5089568;28;20410;-75
2023/09/22 02:22:56;;;;;;;0.30;0.30;;;12.00;5.00;;;;;;5088290;28;20055;-75
2023/09/22 02:25:23;;;;;;;0.20;0.20;;;12.00;56.40;;;;;;5088491;28;20048;-75
2023/09/22 02:27:54;;;;;;;0.20;0.20;;;11.90;1.00;;;;;;5071045;28;20151;-75
2023/09/22 02:30:22;;;;;;;0.45;0.30;;;11.90;1.00;;;;;;5072607;28;20051;-75
2023/09/22 02:32:50;;;;;;;0.28;0.28;;;11.90;10.80;;;;;;5087658;28;20455;-75
2023/09/22 02:35:18;;;;;;;0.28;0.28;;;11.80;1.00;;;;;;5088184;28;20146;-75
2023/09/22 02:37:45;;;;;;;0.63;0.35;;;11.80;1.00;;;;;;5086702;28;20048;-75
2023/09/22 02:40:14;;;;;;;0.50;0.40;;;11.70;1.00;;;;;;5088047;28;20067;-75
2023/09/22 02:42:42;;;;;;;0.38;0.30;;;11.70;1.00;;;;;;5089142;28;20495;-75
2023/09/22 02:45:09;;;;;;;0.20;0.20;;;11.60;1.00;;;;;;5071733;28;20044;-75
2023/09/22 02:47:40;;;;;;;0.30;0.30;;;11.50;6.00;;;;;;5087514;28;20079;-75
2023/09/22 02:50:10;;;;;;;0.35;0.35;;;11.50;91.50;;;;;;5087963;28;20056;-75
2023/09/22 02:52:42;;;;;;;0.20;0.20;;;11.50;96.30;;;;;;5070749;28;20043;-75
2023/09/22 02:55:09;;;;;;;0.52;0.40;;;11.50;96.80;;;;;;5071807;28;20079;-75
2023/09/22 02:57:36;;;;;;;0.65;0.30;;;11.40;99.90;;;;;;5070889;28;20059;-75
2023/09/22 03:00:18;;;;;;;0.10;0.10;;;11.40;99.90;;;;;;5087604;28;20403;-75
2023/09/22 03:02:47;;;;;;;0.22;0.10;;;11.40;99.90;;;;;;5066658;28;20418;-74
2023/09/22 03:05:16;;;;;;;0.28;0.28;;;11.30;99.90;;;;;;5082974;28;20048;-75
2023/09/22 03:07:44;;;;;;;0.28;0.28;;;11.20;1.00;;;;;;5089561;28;20052;-74
2023/09/22 03:10:10;;;;;;;0.65;0.43;;;11.20;99.90;;;;;;5054001;28;20116;-74
2023/09/22 03:12:38;;;;;;;0.30;0.30;;;11.20;99.90;;;;;;5054289;28;20060;-74
2023/09/22 03:15:09;;;;;;;0.30;0.30;;;11.30;99.90;;;;;;5070366;28;20048;-75
2023/09/22 03:17:39;;;;;;;0.38;0.30;;;11.20;99.90;;;;;;5087587;28;20075;-74
2023/09/22 03:20:07;;;;;;;0.30;0.30;;;11.30;99.90;;;;;;5071241;28;20123;-74
2023/09/22 03:22:35;;;;;;;0.80;0.60;;;11.30;99.90;;;;;;5069700;28;20048;-74
2023/09/22 03:25:02;;;;;;;0.47;0.40;;;11.40;99.90;;;;;;5070628;28;20074;-75
2023/09/22 03:27:34;;;;;;;0.30;0.30;;;11.40;99.90;;;;;;5054031;28;20055;-74
2023/09/22 03:30:05;;;;;;;0.38;0.38;;;11.50;99.90;;;;;;5071002;28;20127;-74
2023/09/22 03:32:33;;;;;;;0.43;0.30;;;11.50;99.90;;;;;;5070344;28;20398;-74
2023/09/22 03:35:01;;;;;;;0.47;0.30;;;11.50;99.90;;;;;;5054381;28;20088;-74
2023/09/22 03:37:29;;;;;;;0.20;0.20;;;11.50;99.90;;;;;;5052596;28;20044;-74
2023/09/22 03:39:56;;;;;;;0.47;0.40;;;11.50;99.90;;;;;;5088571;28;20056;-74
2023/09/22 03:42:25;;;;;;;0.30;0.20;;;11.50;99.90;;;;;;5069541;28;20237;-74
2023/09/22 03:44:52;;;;;;;0.30;0.28;;;11.60;99.90;;;;;;5070767;28;20044;-74
2023/09/22 03:47:18;;;;;;;0.57;0.30;;;11.60;99.90;;;;;;5069840;28;20428;-77
2023/09/22 03:49:45;;;;;;;0.30;0.30;;;11.60;99.90;;;;;;5070262;28;20052;-74
2023/09/22 03:52:14;;;;;;;0.35;0.35;;;11.60;99.90;;;;;;5069057;28;20059;-74
2023/09/22 03:54:41;;;;;;;0.38;0.38;;;11.60;99.90;;;;;;5086305;28;20403;-74
2023/09/22 03:57:08;;;;;;;0.50;0.47;;;11.60;99.90;;;;;;5086227;28;20044;-74
2023/09/22 03:59:35;;;;;;;0.30;0.30;;;11.60;99.90;;;;;;5088338;28;20418;-74
2023/09/22 04:02:02;;;;;;;0.38;0.38;;;11.60;99.90;;;;;;5086202;28;20353;-75
2023/09/22 04:04:29;;;;;;;0.50;0.38;;;11.60;99.90;;;;;;5086579;28;20101;-74
2023/09/22 04:06:58;;;;;;;0.35;0.30;;;11.50;12.90;;;;;;5085987;28;20064;-75
2023/09/22 04:09:25;;;;;;;0.40;0.30;;;11.50;44.50;;;;;;5088040;28;20059;-74
2023/09/22 04:11:52;;;;;;;0.25;0.25;;;11.40;44.40;;;;;;5069083;28;20127;-73
2023/09/22 04:14:20;;;;;;;0.22;0.22;;;11.40;25.60;;;;;;5087193;28;20128;-73
2023/09/22 04:16:47;;;;;;;0.55;0.45;;;11.30;6.60;;;;;;5086147;28;20072;-73
2023/09/22 04:19:14;;;;;;;0.55;0.50;;;11.30;90.60;;;;;;5087471;28;20043;-73
2023/09/22 04:21:48;;;;;;;0.25;0.25;;;11.20;14.20;;;;;;5085139;28;20411;-73
2023/09/22 04:24:15;;;;;;;0.32;0.30;;;11.10;99.90;;;;;;5087666;28;20553;-73
2023/09/22 04:26:44;;;;;;;0.40;0.40;;;11.10;1.00;;;;;;5085478;28;20048;-73
2023/09/22 04:29:11;;;;;;;0.38;0.30;;;11.00;33.60;;;;;;5086582;28;20105;-73
2023/09/22 04:31:38;;;;;;;0.38;0.38;;;11.00;58.20;;;;;;5087255;28;20097;-73
2023/09/22 04:34:05;;;;;;;0.47;0.40;;;11.00;56.80;;;;;;5070929;28;20055;-73
2023/09/22 04:36:33;;;;;;;0.32;0.32;;;11.00;99.90;;;;;;5086909;28;20044;-73
2023/09/22 04:39:00;;;;;;;0.20;0.20;;;10.90;99.90;;;;;;5087318;28;20079;-73
2023/09/22 04:41:27;;;;;;;0.40;0.30;;;10.90;95.00;;;;;;5086116;28;20129;-73
2023/09/22 04:43:54;;;;;;;0.40;0.40;;;10.90;99.90;;;;;;5086448;28;20117;-73
2023/09/22 04:46:21;;;;;;;0.30;0.30;;;10.80;99.90;;;;;;5086573;28;20086;-73
2023/09/22 04:48:48;;;;;;;0.63;0.40;;;10.80;34.60;;;;;;5082784;28;20082;-74
2023/09/22 04:51:15;;;;;;;0.40;0.40;;;10.70;1.00;;;;;;5083263;28;20051;-73
2023/09/22 04:53:42;;;;;;;0.32;0.30;;;10.70;51.80;;;;;;5081946;28;20522;-73
2023/09/22 04:56:09;;;;;;;0.30;0.30;;;10.60;68.60;;;;;;5082840;28;20422;-73
2023/09/22 04:58:38;;;;;;;0.28;0.28;;;10.60;91.80;;;;;;5082295;28;20524;-73
2023/09/22 05:01:05;;;;;;;0.30;0.30;;;10.60;99.90;;;;;;5079111;28;20581;-73
2023/09/22 05:03:34;;;;;;;0.35;0.30;;;10.70;99.90;;;;;;5078358;27;20897;-73
2023/09/22 05:06:05;;;;;;;0.25;0.25;;;10.70;99.90;;;;;;5066869;28;20063;-73
2023/09/22 05:08:33;;;;;;;0.45;0.40;;;10.70;99.90;;;;;;5062978;28;20105;-74
2023/09/22 05:11:04;;;;;;;0.35;0.25;;;10.70;99.90;;;;;;5048012;28;20101;-74
2023/09/22 05:13:31;;;;;;;0.50;0.40;;;10.70;99.90;;;;;;5064741;28;20047;-74
2023/09/22 05:16:20;;;;;;;0.52;0.47;;;10.70;99.90;;;;;;5064808;28;20109;-74
2023/09/22 05:18:47;;;;;;;1.08;0.63;;;10.70;99.90;;;;;;5081015;28;20491;-74
2023/09/22 05:21:13;;;;;;;0.43;0.43;;;10.70;99.90;;;;;;5065111;28;20052;-74
2023/09/22 05:23:41;;;;;;;0.47;0.43;;;10.80;99.90;;;;;;5066436;28;20063;-73
2023/09/22 05:26:08;;;;;;;0.45;0.30;;;10.80;99.90;;;;;;5083791;28;20052;-74
2023/09/22 05:28:36;;;;;;;0.45;0.35;;;10.80;99.90;;;;;;5081076;28;20412;-74
2023/09/22 05:31:07;;;;;;;0.30;0.30;;;10.80;99.90;;;;;;5075064;28;20059;-74
2023/09/22 05:33:39;;;;;;;0.50;0.40;;;10.80;99.90;;;;;;5058370;28;20051;-74
2023/09/22 05:36:06;;;;;;;0.80;0.30;;;10.80;99.90;;;;;;5077077;28;20077;-74
2023/09/22 05:38:33;;;;;;;0.40;0.40;;;10.90;99.90;;;;;;5068636;28;20044;-74
2023/09/22 05:40:59;;;;;;;0.40;0.40;;;10.80;99.90;;;;;;5082640;28;20090;-74
2023/09/22 05:43:27;;;;;;;0.40;0.40;;;10.90;99.90;;;;;;5085068;28;20086;-74
2023/09/22 05:45:55;;;;;;;0.30;0.30;;;10.90;99.90;;;;;;5086564;28;20124;-74
2023/09/22 05:48:22;;;;;;;0.52;0.30;;;10.90;99.90;;;;;;5057236;28;20206;-74
2023/09/22 05:50:59;;;;;;;0.55;0.40;;;10.90;88.70;;;;;;5070048;28;20040;-74
2023/09/22 05:53:27;;;;;;;0.40;0.30;;;11.00;38.90;;;;;;5083012;28;20059;-74
2023/09/22 05:56:11;;;;;;;0.20;0.20;;;11.00;27.80;;;;;;5081715;28;20429;-74
2023/09/22 05:58:39;;;;;;;0.50;0.40;;;11.10;53.70;;;;;;5090454;28;20567;-73
2023/09/22 06:01:07;;;;;;;0.30;0.30;;;11.10;53.00;;;;;;5089358;28;20083;-74
2023/09/22 06:03:35;;;;;;;0.43;0.43;;;11.10;72.10;;;;;;5088062;28;20079;-74
2023/09/22 06:06:12;;;;;;;0.50;0.43;;;11.20;57.40;;;;;;5087147;28;20125;-73
2023/09/22 06:08:40;;;;;;;0.60;0.50;;;11.20;41.30;;;;;;5055893;28;20059;-73
2023/09/22 06:11:08;;;;;;;0.57;0.30;;;11.30;1.00;;;;;;5073699;28;20056;-73
2023/09/22 06:13:35;;;;;;;0.65;0.20;;;11.30;1.00;;;;;;5054300;28;20145;-74
2023/09/22 06:16:02;;;;;;;0.40;0.30;;;11.30;1.00;;;;;;5085624;28;20043;-74
2023/09/22 06:18:29;;;;;;;0.45;0.40;;;11.30;1.00;;;;;;5068394;28;20052;-74
2023/09/22 06:20:58;;;;;;;0.40;0.40;;;11.40;1.00;;;;;;5085724;28;20124;-74
2023/09/22 06:23:25;;;;;;;0.40;0.40;;;11.40;1.00;;;;;;5050469;28;20054;-74
2023/09/22 06:25:54;;;;;;;0.50;0.43;;;11.50;1.00;;;;;;5068172;28;20051;-74
2023/09/22 06:28:21;;;;;;;0.73;0.50;;;11.50;1.00;;;;;;5085746;28;20521;-74
2023/09/22 06:30:48;;;;;;;0.38;0.38;;;11.60;1.00;;;;;;5088247;28;20655;-74
2023/09/22 06:33:16;;;;;;;0.40;0.35;;;11.60;1.00;;;;;;5089573;28;20534;-74
2023/09/22 06:35:44;;;;;;;0.50;0.40;;;11.70;1.00;;;;;;5090840;28;20047;-73
2023/09/22 06:38:11;;;;;;;0.45;0.45;;;11.80;1.00;;;;;;5068951;28;20422;-74
2023/09/22 06:40:38;;;;;;;1.08;0.73;;;11.80;99.90;;;;;;5070950;28;20189;-74
2023/09/22 06:43:05;;;;;;;0.95;0.73;;;11.80;99.90;;;;;;5090168;28;20447;-74
2023/09/22 06:45:51;;;;;;;0.60;0.60;;;11.80;99.90;;;;;;5073690;28;20067;-74
2023/09/22 06:48:27;;;;;;;0.90;0.80;;;11.80;99.90;;;;;;5082238;28;20499;-74
2023/09/22 06:50:57;;;;;;;0.80;0.80;;;11.90;99.90;;;;;;5069604;28;20131;-74
2023/09/22 06:53:26;;;;;;;0.93;0.70;;;12.00;1.00;;;;;;5056777;28;20135;-74
2023/09/22 06:56:09;;;;;;;1.00;0.82;;;12.00;99.90;;;;;;5083453;28;20312;-74
2023/09/22 06:58:37;;;;;;;1.30;0.90;;;12.00;99.90;;;;;;5068441;28;20330;-74
2023/09/22 07:01:09;;;;;;;1.10;0.57;;;12.10;79.30;;;;;;5068125;28;20133;-74
2023/09/22 07:03:38;;;;;;;;;;;12.10;99.90;;;;;;5080620;28;20051;-73
2023/09/22 07:06:07;;;;;;;1.73;0.70;;;12.10;99.90;;;;;;5096219;28;19967;-73
2023/09/22 07:08:35;;;;;;;0.52;0.52;;;12.10;69.50;;;;;;5086216;28;20538;-74
2023/09/22 07:11:08;;;;;;;1.42;0.60;;;12.20;86.40;;;;;;5086693;28;20040;-74
2023/09/22 07:13:35;;;;;;;1.40;0.85;;;12.20;99.90;;;;;;5085299;28;20044;-74
2023/09/22 07:16:02;;;;;;;1.27;1.10;;;12.20;1.00;;;;;;5086837;28;20055;-73
2023/09/22 07:18:29;;;;;;;0.80;0.70;;;12.20;1.00;;;;;;5087901;28;20059;-74
2023/09/22 07:20:56;;;;;;;0.98;0.68;;;12.20;99.90;;;;;;5087748;28;20044;-73
2023/09/22 07:23:23;;;;;;;1.00;0.73;;;12.30;99.90;;;;;;5084776;28;20515;-73
2023/09/22 07:26:03;;;;;;;0.70;0.60;;;12.30;99.90;;;;;;5067828;28;20508;-73
2023/09/22 07:28:34;;;;;;;;;;;12.30;1.00;;;;;;5078251;28;20506;-73
2023/09/22 07:31:12;;;;;;;0.90;0.68;;;12.30;99.90;;;;;;5082599;28;19927;-73
2023/09/22 07:33:40;;;;;;;1.98;1.17;;;12.20;99.90;;;;;;5061949;28;20144;-73
2023/09/22 07:36:07;;;;;;;0.88;0.80;;;12.20;1.00;;;;;;5082723;28;20071;-73
2023/09/22 07:38:34;;;;;;;1.20;1.02;;;12.20;99.90;;;;;;5064795;28;20047;-73
2023/09/22 07:41:01;;;;;;;1.38;1.20;;;12.20;99.90;;;;;;5064481;28;20125;-73
2023/09/22 07:43:29;;;;;;;1.35;1.10;;;12.20;99.90;;;;;;5079835;28;20048;-73
2023/09/22 07:45:57;;;;;;;1.33;1.20;;;12.20;99.90;;;;;;5077476;28;20047;-73
2023/09/22 07:48:24;;;;;;;1.23;1.00;;;12.30;99.90;;;;;;5068680;28;20135;-73
2023/09/22 07:50:52;;;;;;;1.13;0.90;;;12.30;99.90;;;;;;5087321;28;20383;-73
2023/09/22 07:53:20;;;;;;;1.15;0.90;;;12.30;99.90;;;;;;5067644;28;20121;-73
2023/09/22 07:55:47;;;;;;;1.15;1.05;;;12.30;1.00;;;;;;5069194;28;20461;-73
2023/09/22 07:58:14;;;;;;;1.27;1.08;;;12.40;75.80;;;;;;5059459;28;20048;-73
2023/09/22 08:00:46;;;;;;;1.20;0.90;;;12.40;99.90;;;;;;5087029;28;20055;-73
2023/09/22 08:03:18;;;;;;;1.63;1.45;;;12.30;79.40;;;;;;5067544;28;20154;-73
2023/09/22 08:05:46;;;;;;;2.35;0.95;;;12.30;1.00;;;;;;5085023;28;20475;-73
2023/09/22 08:08:17;;;;;;;1.10;1.00;;;12.30;99.90;;;;;;5050713;28;20052;-73
2023/09/22 08:10:44;;;;;;;1.67;1.42;;;12.30;99.90;;;;;;5084515;28;20475;-73
2023/09/22 08:13:11;;;;;;;1.60;1.30;;;12.20;99.90;;;;;;5084095;28;20093;-73
2023/09/22 08:15:38;;;;;;;1.33;1.10;;;12.30;1.00;;;;;;5083026;28;20452;-73
2023/09/22 08:18:06;;;;;;;1.95;1.25;;;12.20;1.00;;;;;;5051511;28;20091;-73
2023/09/22 08:20:33;;;;;;;1.50;1.20;;;12.20;99.90;;;;;;5076794;28;20045;-73
2023/09/22 08:23:00;;;;;;;1.67;1.40;;;12.10;99.90;;;;;;5063767;28;20279;-74
2023/09/22 08:25:29;;;;;;;1.90;1.25;;;12.20;1.00;;;;;;5071552;28;20052;-74
2023/09/22 08:27:58;;;;;;;2.17;1.30;;;12.10;99.90;;;;;;5073056;28;20062;-74
2023/09/22 08:30:25;;;;;;;1.42;1.20;;;12.10;1.00;;;;;;5065409;28;20123;-73
2023/09/22 08:32:53;;;;;;;1.95;1.20;;;12.20;99.90;;;;;;5081676;28;20098;-73
2023/09/22 08:35:20;;;;;;;1.20;1.10;;;12.30;99.90;;;;;;5077644;28;20044;-73
2023/09/22 08:37:47;;;;;;;1.60;1.08;;;12.30;99.90;;;;;;5077535;28;20505;-73
2023/09/22 08:40:15;;;;;;;1.70;1.38;;;12.40;99.90;;;;;;5058948;28;20067;-73
2023/09/22 08:42:44;;;;;;;1.83;1.25;;;12.40;99.90;;;;;;5072567;28;20537;-73
2023/09/22 08:45:11;;;;;;;1.70;1.30;;;12.40;99.90;;;;;;5070246;28;20044;-73
2023/09/22 08:47:39;;;;;;;1.50;1.38;;;12.50;99.90;;;;;;5054470;28;20117;-73
2023/09/22 08:50:11;;;;;;;1.88;1.35;;;12.50;99.90;;;;;;5057841;28;20076;-73
2023/09/22 08:52:39;;;;;;;1.20;1.05;;;12.50;1.00;;;;;;5074817;28;20545;-73
2023/09/22 08:55:14;;;;;;;1.08;0.90;;;12.50;30.90;;;;;;5054033;28;20385;-73
2023/09/22 08:57:45;;;;;;;1.23;1.13;;;12.50;79.10;;;;;;5076322;28;20040;-73
2023/09/22 09:00:20;;;;;;;2.10;1.20;;;12.50;1.00;;;;;;5072010;28;20923;-73
2023/09/22 09:02:51;;;;;;;2.75;1.52;;;12.50;99.90;;;;;;5070889;28;20047;-74
2023/09/22 09:05:30;;;;;;;1.77;1.42;;;12.60;1.00;;;;;;5068337;28;20250;-73
2023/09/22 09:08:19;;;;;;;1.63;1.35;;;12.60;99.90;;;;;;5060176;28;20048;-73
2023/09/22 09:10:47;;;;;;;1.08;0.98;;;12.70;48.20;;;;;;5074355;28;20495;-73
2023/09/22 09:13:19;;;;;;;1.10;0.90;;;12.80;10.30;;;;;;5072601;28;20048;-73
2023/09/22 09:15:49;;;;;;;1.33;0.93;;;12.90;99.90;;;;;;5073910;28;20804;-73
2023/09/22 09:18:18;;;;;;;1.50;1.13;;;13.00;99.90;;;;;;5059429;28;21048;-73
2023/09/22 09:21:03;;;;;;;1.67;1.33;;;13.00;99.90;;;;;;5075998;28;20047;-73
2023/09/22 09:23:30;;;;;;;1.00;0.90;;;13.00;1.00;;;;;;5054685;28;20055;-73
2023/09/22 09:25:57;;;;;;;1.40;1.00;;;13.00;99.90;;;;;;5067520;28;21021;-73
2023/09/22 09:28:24;;;;;;;0.93;0.88;;;13.10;1.00;;;;;;5055855;28;20043;-73
2023/09/22 09:30:58;;;;;;;1.13;0.93;;;13.10;85.90;;;;;;5079484;28;20052;-73
2023/09/22 09:33:27;;;;;;;1.35;1.17;;;13.30;1.00;;;;;;5079769;28;20048;-73
2023/09/22 09:35:55;;;;;;;1.25;1.00;;;13.30;99.90;;;;;;5081954;28;20155;-74
2023/09/22 09:38:29;;;;;;;1.63;1.10;;;13.40;1.00;;;;;;5057663;28;20120;-74
2023/09/22 09:40:56;;;;;;;1.20;0.90;;;13.50;99.90;;;;;;5061055;28;20135;-74
2023/09/22 09:43:23;;;;;;;1.20;0.98;;;13.60;99.90;;;;;;5059394;28;20155;-74
2023/09/22 09:45:56;;;;;;;3.58;1.98;;;13.70;92.30;;;;;;5074483;28;20363;-74
2023/09/22 09:48:24;;;;;;;1.75;1.20;;;13.80;73.10;;;;;;5078491;28;20070;-73
2023/09/22 09:50:53;;;;;;;1.65;1.48;;;13.90;43.60;;;;;;5061677;28;20052;-73
2023/09/22 09:53:45;;;;;;;1.92;1.40;;;14.00;33.90;;;;;;5042083;28;20125;-73
2023/09/22 09:56:17;;;;;;;1.25;0.93;;;14.10;1.00;;;;;;5077777;28;20067;-76
2023/09/22 09:58:48;;;;;;;1.80;1.30;;;14.20;1.00;;;;;;5073638;28;20130;-76
2023/09/22 10:01:17;;;;;;;1.40;1.10;;;14.30;1.00;;;;;;5049020;28;20056;-73
2023/09/22 10:03:44;;;;;;;1.80;1.13;;;14.40;1.00;;;;;;5075519;28;20882;-76
2023/09/22 10:06:13;;;;;;;1.20;0.98;;;14.60;1.00;;;;;;5060802;28;20059;-75
2023/09/22 10:08:40;;;;;;;1.27;1.08;;;14.60;1.00;;;;;;5072019;28;20048;-73
2023/09/22 10:11:11;;;;;;;0.82;0.80;;;14.70;99.90;;;;;;5077587;28;20471;-74
2023/09/22 10:13:38;;;;;;;0.98;0.88;;;14.80;99.90;;;;;;5059593;28;20185;-74
2023/09/22 10:16:06;;;;;;;1.40;1.08;;;14.90;99.90;;;;;;5059202;28;20047;-74
2023/09/22 10:18:55;;;;;;;0.85;0.63;;;15.00;99.90;;;;;;5078257;28;20055;-74
2023/09/22 10:21:41;;;;;;;1.15;1.00;;;15.10;99.90;;;;;;5041013;28;20044;-73
2023/09/22 10:24:23;;;;;;;1.27;0.85;;;15.20;99.90;;;;;;5074135;28;20220;-73
2023/09/22 10:26:56;;;;;;;1.10;0.93;;;15.30;99.90;;;;;;5081038;28;20067;-74
2023/09/22 10:29:33;;;;;;;;;;;15.40;99.90;;;;;;5080052;28;20058;-74
2023/09/22 10:32:15;;;;;;;1.33;1.05;;;15.40;99.90;;;;;;5081302;28;19930;-73
2023/09/22 10:34:49;;;;;;;0.93;0.77;;;15.60;99.90;;;;;;5072201;28;20051;-73
2023/09/22 10:37:27;;;;;;;1.15;0.70;;;15.70;99.90;;;;;;5079800;28;20052;-73
2023/09/22 10:40:13;;;;;;;1.52;1.00;;;15.90;99.90;;;;;;5077010;28;20052;-74
2023/09/22 10:42:43;;;;;;;1.33;0.95;;;16.00;99.90;;;;;;5060203;28;20056;-73
2023/09/22 10:45:11;;;;;;;2.10;1.00;;;16.10;99.90;;;;;;5077801;28;20429;-74
2023/09/22 10:47:45;;;;;;;1.70;0.80;;;16.20;99.90;;;;;;5051962;28;20048;-74
2023/09/22 10:50:24;;;;;;;0.88;0.70;;;16.20;99.90;;;;;;5059479;28;20124;-74
2023/09/22 10:53:04;;;;;;;1.23;0.75;;;16.20;99.90;;;;;;5092962;28;20078;-74
2023/09/22 10:55:42;;;;;;;1.27;0.73;;;16.20;99.90;;;;;;5062066;28;20051;-74
2023/09/22 10:58:09;;;;;;;1.20;0.70;;;16.20;99.90;;;;;;5075490;28;20080;-74
2023/09/22 11:00:39;;;;;;;1.40;0.75;;;16.20;99.90;;;;;;5080011;28;20425;-73
2023/09/22 11:03:10;;;;;;;1.27;0.77;;;16.20;99.90;;;;;;5077098;28;20115;-73
2023/09/22 11:05:41;;;;;;;1.15;0.82;;;16.40;99.90;;;;;;5076623;28;20048;-73
2023/09/22 11:08:16;;;;;;;0.75;0.57;;;16.40;99.90;;;;;;5047094;28;20048;-74
2023/09/22 11:10:43;;;;;;;0.85;0.55;;;16.60;99.90;;;;;;5047578;28;20149;-74
2023/09/22 11:13:12;;;;;;;0.55;0.50;;;16.70;99.90;;;;;;5078318;28;20044;-74
2023/09/22 11:15:57;;;;;;;0.68;0.50;;;16.80;99.90;;;;;;5047083;28;20060;-73
2023/09/22 11:18:35;;;;;;;2.30;0.70;;;16.90;99.90;;;;;;5072221;28;20078;-73
2023/09/22 11:21:08;;;;;;;1.00;0.82;;;17.20;99.90;;;;;;5063017;28;20083;-73
2023/09/22 11:23:41;;;;;;;;;;;17.40;99.90;;;;;;5075865;28;20094;-74
2023/09/22 11:26:12;;;;;;;1.15;0.80;;;17.50;99.90;;;;;;5079535;28;20436;-73
2023/09/22 11:28:43;;;;;;;0.90;0.38;;;17.80;99.90;;;;;;5061672;28;20048;-74
2023/09/22 11:31:14;;;;;;;0.80;0.60;;;17.90;99.90;;;;;;5060954;28;20061;-73
2023/09/22 11:33:42;;;;;;;1.00;0.63;;;17.70;99.90;;;;;;5054140;28;20576;-72
2023/09/22 11:36:09;;;;;;;0.55;0.50;;;17.80;99.60;;;;;;5046446;28;20055;-73
2023/09/22 11:38:39;;;;;;;0.50;0.50;;;17.90;97.10;;;;;;5078484;28;20063;-73
2023/09/22 11:41:09;;;;;;;1.02;0.70;;;18.40;96.30;;;;;;5049683;28;20051;-73
2023/09/22 11:43:46;;;;;;;0.93;0.52;;;18.50;93.00;;;;;;5066192;28;20926;-73
2023/09/22 11:46:25;;;;;;;1.00;0.60;;;18.60;91.30;;;;;;5069340;28;20519;-73
2023/09/22 11:48:55;;;;;;;1.08;0.77;;;18.70;88.00;;;;;;5086302;28;20044;-73
2023/09/22 11:51:22;;;;;;;1.77;0.73;;;19.00;84.40;;;;;;5087352;28;20059;-73
2023/09/22 11:53:49;;;;;;;0.70;0.50;;;19.10;89.90;;;;;;5068693;28;20055;-73
2023/09/22 11:56:16;;;;;;;0.82;0.57;;;19.30;80.20;;;;;;5087786;28;20044;-73
2023/09/22 11:58:43;;;;;;;0.80;0.57;;;19.60;79.50;;;;;;5087415;28;20048;-73
2023/09/22 12:01:10;;;;;;;0.52;0.40;;;19.90;73.90;;;;;;5087325;28;20422;-73
2023/09/22 12:03:37;;;;;;;0.60;0.47;;;20.10;70.80;;;;;;5087541;28;20059;-74
2023/09/22 12:06:04;;;;;;;0.93;0.60;;;20.40;70.90;;;;;;5086833;28;20056;-73
2023/09/22 12:08:31;;;;;;;1.10;0.50;;;20.60;66.20;;;;;;5086348;28;20109;-74
2023/09/22 12:11:00;;;;;;;0.38;0.38;;;20.60;61.50;;;;;;5087146;28;20084;-73
2023/09/22 12:13:27;;;;;;;1.25;0.70;;;20.60;54.60;;;;;;5087256;28;20079;-73
2023/09/22 12:15:54;;;;;;;0.63;0.50;;;20.40;51.80;;;;;;5086010;28;20247;-73
2023/09/22 12:18:21;;;;;;;0.82;0.60;;;20.50;49.80;;;;;;5086536;28;20522;-74
2023/09/22 12:20:48;;;;;;;1.00;0.60;;;20.70;47.50;;;;;;5067028;28;20072;-74
2023/09/22 12:23:15;;;;;;;0.88;0.50;;;20.90;53.50;;;;;;5064651;28;20094;-73
2023/09/22 12:25:42;;;;;;;0.47;0.47;;;21.10;37.00;;;;;;5063061;28;20495;-74
2023/09/22 12:28:09;;;;;;;0.73;0.50;;;20.80;30.80;;;;;;5063600;28;20412;-74
2023/09/22 12:30:36;;;;;;;0.60;0.60;;;21.00;35.70;;;;;;5065342;28;20053;-73
2023/09/22 12:33:03;;;;;;;0.52;0.52;;;21.10;30.70;;;;;;5048545;28;20067;-74
2023/09/22 12:35:30;;;;;;;0.65;0.50;;;21.10;26.80;;;;;;5065174;28;20058;-74
2023/09/22 12:37:57;;;;;;;1.10;0.70;;;21.10;27.20;;;;;;5064122;28;20048;-74
2023/09/22 12:40:23;;;;;;;0.70;0.50;;;21.20;25.80;;;;;;5064623;28;20052;-74
2023/09/22 12:42:51;;;;;;;0.75;0.60;;;21.20;25.70;;;;;;5064791;28;20044;-74
2023/09/22 12:45:19;;;;;;;0.38;0.38;;;21.40;24.30;;;;;;5065687;28;20536;-74
2023/09/22 12:47:46;;;;;;;0.80;0.43;;;21.50;20.50;;;;;;5063667;28;20040;-74
2023/09/22 12:50:13;;;;;;;0.57;0.35;;;21.70;19.80;;;;;;5048556;28;20041;-74
2023/09/22 12:52:40;;;;;;;0.82;0.50;;;21.80;21.50;;;;;;5064982;28;20052;-74
2023/09/22 12:55:10;;;;;;;0.82;0.45;;;21.90;18.60;;;;;;5066338;28;20045;-74
2023/09/22 12:57:38;;;;;;;1.52;0.50;;;22.20;19.50;;;;;;5064936;28;20056;-74
2023/09/22 13:00:06;;;;;;;1.00;0.50;;;22.70;17.10;;;;;;5031955;28;20080;-74